sensor_id;sensor_type;location;lat;lon;timestamp;P1;durP1;ratioP1;P2;durP2;ratioP2
36441;SDS011;64346;50.820;16.274;2023-04-24T00:00:08;18.42;;;8.80;;
36441;SDS011;64346;50.820;16.274;2023-04-24T00:02:56;15.02;;;8.93;;
36441;SDS011;64346;50.820;16.274;2023-04-24T00:05:23;16.05;;;9.02;;
36441;SDS011;64346;50.820;16.274;2023-04-24T00:07:53;15.13;;;8.60;;
36441;SDS011;64346;50.820;16.274;2023-04-24T00:10:21;18.67;;;9.75;;
36441;SDS011;64346;50.820;16.274;2023-04-24T00:12:48;15.85;;;9.10;;
36441;SDS011;64346;50.820;16.274;2023-04-24T00:15:17;16.50;;;9.07;;
36441;SDS011;64346;50.820;16.274;2023-04-24T00:17:47;14.63;;;9.05;;
36441;SDS011;64346;50.820;16.274;2023-04-24T00:20:14;15.70;;;8.35;;
36441;SDS011;64346;50.820;16.274;2023-04-24T00:22:41;15.70;;;8.18;;
36441;SDS011;64346;50.820;16.274;2023-04-24T00:25:09;15.82;;;8.38;;
36441;SDS011;64346;50.820;16.274;2023-04-24T00:27:36;17.70;;;9.15;;
36441;SDS011;64346;50.820;16.274;2023-04-24T00:30:03;14.15;;;7.63;;
36441;SDS011;64346;50.820;16.274;2023-04-24T00:32:31;14.65;;;8.63;;
36441;SDS011;64346;50.820;16.274;2023-04-24T00:35:00;14.60;;;7.95;;
36441;SDS011;64346;50.820;16.274;2023-04-24T00:37:27;14.75;;;8.45;;
36441;SDS011;64346;50.820;16.274;2023-04-24T00:39:57;15.27;;;8.40;;
36441;SDS011;64346;50.820;16.274;2023-04-24T00:42:24;14.02;;;7.65;;
36441;SDS011;64346;50.820;16.274;2023-04-24T00:44:55;14.07;;;7.80;;
36441;SDS011;64346;50.820;16.274;2023-04-24T00:47:23;13.38;;;8.23;;
36441;SDS011;64346;50.820;16.274;2023-04-24T00:49:51;12.95;;;7.47;;
36441;SDS011;64346;50.820;16.274;2023-04-24T00:52:19;14.07;;;7.63;;
36441;SDS011;64346;50.820;16.274;2023-04-24T00:54:48;13.05;;;6.97;;
36441;SDS011;64346;50.820;16.274;2023-04-24T00:57:15;12.93;;;7.50;;
36441;SDS011;64346;50.820;16.274;2023-04-24T00:59:43;12.75;;;7.47;;
36441;SDS011;64346;50.820;16.274;2023-04-24T01:02:11;15.23;;;7.40;;
36441;SDS011;64346;50.820;16.274;2023-04-24T01:04:40;15.48;;;8.05;;
36441;SDS011;64346;50.820;16.274;2023-04-24T01:07:08;13.55;;;7.25;;
36441;SDS011;64346;50.820;16.274;2023-04-24T01:09:39;13.65;;;7.20;;
36441;SDS011;64346;50.820;16.274;2023-04-24T01:12:09;12.85;;;7.05;;
36441;SDS011;64346;50.820;16.274;2023-04-24T01:14:37;12.25;;;7.10;;
36441;SDS011;64346;50.820;16.274;2023-04-24T01:17:06;13.00;;;7.10;;
36441;SDS011;64346;50.820;16.274;2023-04-24T01:19:34;13.10;;;7.43;;
36441;SDS011;64346;50.820;16.274;2023-04-24T01:22:07;13.10;;;7.13;;
36441;SDS011;64346;50.820;16.274;2023-04-24T01:24:37;14.30;;;6.88;;
36441;SDS011;64346;50.820;16.274;2023-04-24T01:27:06;13.95;;;7.30;;
36441;SDS011;64346;50.820;16.274;2023-04-24T01:29:35;14.32;;;7.30;;
36441;SDS011;64346;50.820;16.274;2023-04-24T01:32:05;15.13;;;8.52;;
36441;SDS011;64346;50.820;16.274;2023-04-24T01:34:33;14.68;;;7.78;;
36441;SDS011;64346;50.820;16.274;2023-04-24T01:37:03;13.70;;;7.85;;
36441;SDS011;64346;50.820;16.274;2023-04-24T01:39:30;13.90;;;7.45;;
36441;SDS011;64346;50.820;16.274;2023-04-24T01:42:00;13.48;;;7.75;;
36441;SDS011;64346;50.820;16.274;2023-04-24T01:44:28;12.23;;;7.10;;
36441;SDS011;64346;50.820;16.274;2023-04-24T01:46:56;13.80;;;7.30;;
36441;SDS011;64346;50.820;16.274;2023-04-24T01:49:23;13.85;;;7.03;;
36441;SDS011;64346;50.820;16.274;2023-04-24T01:51:50;13.70;;;7.22;;
36441;SDS011;64346;50.820;16.274;2023-04-24T01:54:18;13.27;;;6.80;;
36441;SDS011;64346;50.820;16.274;2023-04-24T01:56:45;12.18;;;7.28;;
36441;SDS011;64346;50.820;16.274;2023-04-24T01:59:13;15.48;;;8.18;;
36441;SDS011;64346;50.820;16.274;2023-04-24T02:01:41;12.90;;;7.47;;
36441;SDS011;64346;50.820;16.274;2023-04-24T02:04:11;13.15;;;7.30;;
36441;SDS011;64346;50.820;16.274;2023-04-24T02:06:41;14.50;;;7.35;;
36441;SDS011;64346;50.820;16.274;2023-04-24T02:09:08;14.27;;;7.10;;
36441;SDS011;64346;50.820;16.274;2023-04-24T02:11:35;11.82;;;6.28;;
36441;SDS011;64346;50.820;16.274;2023-04-24T02:14:04;9.15;;;5.70;;
36441;SDS011;64346;50.820;16.274;2023-04-24T02:16:31;9.68;;;5.78;;
36441;SDS011;64346;50.820;16.274;2023-04-24T02:18:58;13.30;;;5.60;;
36441;SDS011;64346;50.820;16.274;2023-04-24T02:21:25;9.57;;;4.80;;
36441;SDS011;64346;50.820;16.274;2023-04-24T02:23:53;9.70;;;5.35;;
36441;SDS011;64346;50.820;16.274;2023-04-24T02:26:23;13.10;;;6.03;;
36441;SDS011;64346;50.820;16.274;2023-04-24T02:28:50;9.00;;;5.32;;
36441;SDS011;64346;50.820;16.274;2023-04-24T02:31:17;11.05;;;5.80;;
36441;SDS011;64346;50.820;16.274;2023-04-24T02:33:45;9.30;;;5.20;;
36441;SDS011;64346;50.820;16.274;2023-04-24T02:36:12;9.77;;;5.30;;
36441;SDS011;64346;50.820;16.274;2023-04-24T02:38:39;12.10;;;7.32;;
36441;SDS011;64346;50.820;16.274;2023-04-24T02:41:08;10.98;;;5.78;;
36441;SDS011;64346;50.820;16.274;2023-04-24T02:43:36;9.57;;;5.20;;
36441;SDS011;64346;50.820;16.274;2023-04-24T02:46:03;10.05;;;6.00;;
36441;SDS011;64346;50.820;16.274;2023-04-24T02:48:30;13.75;;;5.90;;
36441;SDS011;64346;50.820;16.274;2023-04-24T02:50:57;12.50;;;6.70;;
36441;SDS011;64346;50.820;16.274;2023-04-24T02:53:25;12.65;;;6.20;;
36441;SDS011;64346;50.820;16.274;2023-04-24T02:55:52;11.88;;;6.90;;
36441;SDS011;64346;50.820;16.274;2023-04-24T02:58:19;15.40;;;7.40;;
36441;SDS011;64346;50.820;16.274;2023-04-24T03:03:28;18.48;;;8.38;;
36441;SDS011;64346;50.820;16.274;2023-04-24T03:05:56;14.20;;;7.72;;
36441;SDS011;64346;50.820;16.274;2023-04-24T03:08:23;15.05;;;7.55;;
36441;SDS011;64346;50.820;16.274;2023-04-24T03:10:50;13.90;;;7.35;;
36441;SDS011;64346;50.820;16.274;2023-04-24T03:13:17;16.52;;;7.97;;
36441;SDS011;64346;50.820;16.274;2023-04-24T03:15:45;15.23;;;8.85;;
36441;SDS011;64346;50.820;16.274;2023-04-24T03:18:12;13.02;;;8.35;;
36441;SDS011;64346;50.820;16.274;2023-04-24T03:20:39;11.57;;;7.50;;
36441;SDS011;64346;50.820;16.274;2023-04-24T03:23:06;13.50;;;8.45;;
36441;SDS011;64346;50.820;16.274;2023-04-24T03:25:36;13.05;;;8.25;;
36441;SDS011;64346;50.820;16.274;2023-04-24T03:28:05;15.32;;;8.32;;
36441;SDS011;64346;50.820;16.274;2023-04-24T03:30:33;14.65;;;8.00;;
36441;SDS011;64346;50.820;16.274;2023-04-24T03:33:00;14.63;;;8.40;;
36441;SDS011;64346;50.820;16.274;2023-04-24T03:35:27;14.57;;;9.20;;
36441;SDS011;64346;50.820;16.274;2023-04-24T03:37:54;16.38;;;9.65;;
36441;SDS011;64346;50.820;16.274;2023-04-24T03:40:22;16.15;;;9.63;;
36441;SDS011;64346;50.820;16.274;2023-04-24T03:42:49;14.77;;;8.70;;
36441;SDS011;64346;50.820;16.274;2023-04-24T03:45:19;14.63;;;8.57;;
36441;SDS011;64346;50.820;16.274;2023-04-24T03:47:48;14.05;;;9.13;;
36441;SDS011;64346;50.820;16.274;2023-04-24T03:50:15;13.48;;;8.68;;
36441;SDS011;64346;50.820;16.274;2023-04-24T03:52:42;12.02;;;7.53;;
36441;SDS011;64346;50.820;16.274;2023-04-24T03:55:10;13.18;;;8.43;;
36441;SDS011;64346;50.820;16.274;2023-04-24T03:57:37;13.57;;;7.82;;
36441;SDS011;64346;50.820;16.274;2023-04-24T04:00:05;15.25;;;8.07;;
36441;SDS011;64346;50.820;16.274;2023-04-24T04:02:37;13.55;;;9.07;;
36441;SDS011;64346;50.820;16.274;2023-04-24T04:05:07;13.35;;;8.55;;
36441;SDS011;64346;50.820;16.274;2023-04-24T04:07:39;15.85;;;8.65;;
36441;SDS011;64346;50.820;16.274;2023-04-24T04:10:06;14.57;;;8.68;;
36441;SDS011;64346;50.820;16.274;2023-04-24T04:12:36;16.17;;;9.27;;
36441;SDS011;64346;50.820;16.274;2023-04-24T04:15:03;13.25;;;9.32;;
36441;SDS011;64346;50.820;16.274;2023-04-24T04:17:30;15.80;;;9.65;;
36441;SDS011;64346;50.820;16.274;2023-04-24T04:19:58;15.18;;;10.10;;
36441;SDS011;64346;50.820;16.274;2023-04-24T04:22:25;15.23;;;10.32;;
36441;SDS011;64346;50.820;16.274;2023-04-24T04:24:52;15.98;;;9.30;;
36441;SDS011;64346;50.820;16.274;2023-04-24T04:27:24;15.82;;;8.52;;
36441;SDS011;64346;50.820;16.274;2023-04-24T04:29:52;12.80;;;8.73;;
36441;SDS011;64346;50.820;16.274;2023-04-24T04:32:19;12.50;;;7.25;;
36441;SDS011;64346;50.820;16.274;2023-04-24T04:34:46;13.27;;;7.68;;
36441;SDS011;64346;50.820;16.274;2023-04-24T04:37:16;12.50;;;7.95;;
36441;SDS011;64346;50.820;16.274;2023-04-24T04:39:43;13.65;;;8.48;;
36441;SDS011;64346;50.820;16.274;2023-04-24T04:42:12;12.75;;;8.27;;
36441;SDS011;64346;50.820;16.274;2023-04-24T04:44:40;14.75;;;8.07;;
36441;SDS011;64346;50.820;16.274;2023-04-24T04:47:07;13.35;;;8.85;;
36441;SDS011;64346;50.820;16.274;2023-04-24T04:49:34;12.32;;;7.95;;
36441;SDS011;64346;50.820;16.274;2023-04-24T04:52:01;12.65;;;7.93;;
36441;SDS011;64346;50.820;16.274;2023-04-24T04:54:29;14.52;;;8.13;;
36441;SDS011;64346;50.820;16.274;2023-04-24T04:56:56;12.35;;;7.43;;
36441;SDS011;64346;50.820;16.274;2023-04-24T04:59:23;14.50;;;7.72;;
36441;SDS011;64346;50.820;16.274;2023-04-24T05:01:52;15.85;;;8.10;;
36441;SDS011;64346;50.820;16.274;2023-04-24T05:04:20;12.23;;;7.80;;
36441;SDS011;64346;50.820;16.274;2023-04-24T05:06:47;16.42;;;8.73;;
36441;SDS011;64346;50.820;16.274;2023-04-24T05:09:15;12.27;;;7.55;;
36441;SDS011;64346;50.820;16.274;2023-04-24T05:11:44;12.43;;;7.95;;
36441;SDS011;64346;50.820;16.274;2023-04-24T05:14:12;12.45;;;8.38;;
36441;SDS011;64346;50.820;16.274;2023-04-24T05:16:39;14.15;;;8.50;;
36441;SDS011;64346;50.820;16.274;2023-04-24T05:19:07;15.45;;;9.50;;
36441;SDS011;64346;50.820;16.274;2023-04-24T05:21:34;13.85;;;8.85;;
36441;SDS011;64346;50.820;16.274;2023-04-24T05:24:01;17.90;;;11.70;;
36441;SDS011;64346;50.820;16.274;2023-04-24T05:26:28;15.07;;;9.32;;
36441;SDS011;64346;50.820;16.274;2023-04-24T05:28:56;13.13;;;8.30;;
36441;SDS011;64346;50.820;16.274;2023-04-24T05:31:23;13.38;;;8.43;;
36441;SDS011;64346;50.820;16.274;2023-04-24T05:33:50;15.02;;;9.25;;
36441;SDS011;64346;50.820;16.274;2023-04-24T05:36:19;17.05;;;9.15;;
36441;SDS011;64346;50.820;16.274;2023-04-24T05:38:47;16.05;;;10.57;;
36441;SDS011;64346;50.820;16.274;2023-04-24T05:41:14;20.35;;;12.15;;
36441;SDS011;64346;50.820;16.274;2023-04-24T05:43:43;19.27;;;12.88;;
36441;SDS011;64346;50.820;16.274;2023-04-24T05:46:11;22.80;;;13.50;;
36441;SDS011;64346;50.820;16.274;2023-04-24T05:48:38;20.73;;;12.07;;
36441;SDS011;64346;50.820;16.274;2023-04-24T05:51:05;14.80;;;9.35;;
36441;SDS011;64346;50.820;16.274;2023-04-24T05:53:33;12.88;;;8.13;;
36441;SDS011;64346;50.820;16.274;2023-04-24T05:56:00;14.88;;;8.93;;
36441;SDS011;64346;50.820;16.274;2023-04-24T05:58:27;15.90;;;9.25;;
36441;SDS011;64346;50.820;16.274;2023-04-24T06:00:57;15.57;;;8.77;;
36441;SDS011;64346;50.820;16.274;2023-04-24T06:03:24;13.82;;;8.40;;
36441;SDS011;64346;50.820;16.274;2023-04-24T06:05:51;15.20;;;9.90;;
36441;SDS011;64346;50.820;16.274;2023-04-24T06:08:19;17.08;;;10.63;;
36441;SDS011;64346;50.820;16.274;2023-04-24T06:10:46;15.18;;;8.32;;
36441;SDS011;64346;50.820;16.274;2023-04-24T06:13:15;14.15;;;8.98;;
36441;SDS011;64346;50.820;16.274;2023-04-24T06:15:43;14.55;;;8.88;;
36441;SDS011;64346;50.820;16.274;2023-04-24T06:18:10;13.68;;;7.80;;
36441;SDS011;64346;50.820;16.274;2023-04-24T06:20:38;16.13;;;8.40;;
36441;SDS011;64346;50.820;16.274;2023-04-24T06:23:05;14.77;;;8.45;;
36441;SDS011;64346;50.820;16.274;2023-04-24T06:25:35;13.10;;;8.90;;
36441;SDS011;64346;50.820;16.274;2023-04-24T06:28:02;13.68;;;8.25;;
36441;SDS011;64346;50.820;16.274;2023-04-24T06:30:29;14.25;;;9.40;;
36441;SDS011;64346;50.820;16.274;2023-04-24T06:32:57;15.25;;;8.88;;
36441;SDS011;64346;50.820;16.274;2023-04-24T06:35:38;14.65;;;9.35;;
36441;SDS011;64346;50.820;16.274;2023-04-24T06:38:06;14.45;;;9.60;;
36441;SDS011;64346;50.820;16.274;2023-04-24T06:40:33;14.45;;;9.43;;
36441;SDS011;64346;50.820;16.274;2023-04-24T06:43:05;15.20;;;8.98;;
36441;SDS011;64346;50.820;16.274;2023-04-24T06:45:34;16.60;;;10.15;;
36441;SDS011;64346;50.820;16.274;2023-04-24T06:48:01;24.08;;;15.32;;
36441;SDS011;64346;50.820;16.274;2023-04-24T06:50:31;17.67;;;10.98;;
36441;SDS011;64346;50.820;16.274;2023-04-24T06:52:58;15.90;;;9.75;;
36441;SDS011;64346;50.820;16.274;2023-04-24T06:55:25;16.70;;;10.82;;
36441;SDS011;64346;50.820;16.274;2023-04-24T06:57:53;15.05;;;9.10;;
36441;SDS011;64346;50.820;16.274;2023-04-24T07:00:23;13.95;;;8.95;;
36441;SDS011;64346;50.820;16.274;2023-04-24T07:02:50;15.50;;;8.90;;
36441;SDS011;64346;50.820;16.274;2023-04-24T07:05:17;15.38;;;9.40;;
36441;SDS011;64346;50.820;16.274;2023-04-24T07:07:47;12.95;;;8.52;;
36441;SDS011;64346;50.820;16.274;2023-04-24T07:10:15;13.07;;;8.82;;
36441;SDS011;64346;50.820;16.274;2023-04-24T07:12:44;16.65;;;9.07;;
36441;SDS011;64346;50.820;16.274;2023-04-24T07:15:12;14.52;;;8.32;;
36441;SDS011;64346;50.820;16.274;2023-04-24T07:17:39;12.55;;;7.68;;
36441;SDS011;64346;50.820;16.274;2023-04-24T07:20:06;10.23;;;6.78;;
36441;SDS011;64346;50.820;16.274;2023-04-24T07:22:34;11.75;;;5.25;;
36441;SDS011;64346;50.820;16.274;2023-04-24T07:25:01;9.63;;;5.93;;
36441;SDS011;64346;50.820;16.274;2023-04-24T07:27:28;9.95;;;5.55;;
36441;SDS011;64346;50.820;16.274;2023-04-24T07:29:55;9.90;;;6.05;;
36441;SDS011;64346;50.820;16.274;2023-04-24T07:32:23;10.23;;;6.10;;
36441;SDS011;64346;50.820;16.274;2023-04-24T07:34:50;11.07;;;6.90;;
36441;SDS011;64346;50.820;16.274;2023-04-24T07:37:17;12.85;;;7.93;;
36441;SDS011;64346;50.820;16.274;2023-04-24T07:39:44;12.23;;;6.97;;
36441;SDS011;64346;50.820;16.274;2023-04-24T07:42:12;13.77;;;8.63;;
36441;SDS011;64346;50.820;16.274;2023-04-24T07:44:39;12.68;;;7.82;;
36441;SDS011;64346;50.820;16.274;2023-04-24T07:47:06;15.38;;;8.90;;
36441;SDS011;64346;50.820;16.274;2023-04-24T07:49:36;12.45;;;8.07;;
36441;SDS011;64346;50.820;16.274;2023-04-24T07:52:06;13.50;;;8.50;;
36441;SDS011;64346;50.820;16.274;2023-04-24T07:54:33;12.68;;;7.22;;
36441;SDS011;64346;50.820;16.274;2023-04-24T07:57:03;12.05;;;7.13;;
36441;SDS011;64346;50.820;16.274;2023-04-24T07:59:32;12.00;;;7.10;;
36441;SDS011;64346;50.820;16.274;2023-04-24T08:02:04;10.00;;;5.93;;
36441;SDS011;64346;50.820;16.274;2023-04-24T08:04:32;11.60;;;6.32;;
36441;SDS011;64346;50.820;16.274;2023-04-24T08:07:00;11.88;;;6.57;;
36441;SDS011;64346;50.820;16.274;2023-04-24T08:09:27;13.68;;;7.93;;
36441;SDS011;64346;50.820;16.274;2023-04-24T08:11:55;19.60;;;11.98;;
36441;SDS011;64346;50.820;16.274;2023-04-24T08:14:22;14.07;;;8.32;;
36441;SDS011;64346;50.820;16.274;2023-04-24T08:16:49;14.55;;;8.25;;
36441;SDS011;64346;50.820;16.274;2023-04-24T08:19:20;13.80;;;8.93;;
36441;SDS011;64346;50.820;16.274;2023-04-24T08:21:47;13.40;;;8.35;;
36441;SDS011;64346;50.820;16.274;2023-04-24T08:24:14;12.48;;;7.88;;
36441;SDS011;64346;50.820;16.274;2023-04-24T08:26:42;13.50;;;7.47;;
36441;SDS011;64346;50.820;16.274;2023-04-24T08:29:09;15.68;;;8.60;;
36441;SDS011;64346;50.820;16.274;2023-04-24T08:31:36;19.25;;;9.25;;
36441;SDS011;64346;50.820;16.274;2023-04-24T08:34:06;14.35;;;8.35;;
36441;SDS011;64346;50.820;16.274;2023-04-24T08:36:33;13.88;;;7.60;;
36441;SDS011;64346;50.820;16.274;2023-04-24T08:39:12;11.32;;;6.78;;
36441;SDS011;64346;50.820;16.274;2023-04-24T08:41:41;11.20;;;6.18;;
36441;SDS011;64346;50.820;16.274;2023-04-24T08:44:09;9.00;;;5.95;;
36441;SDS011;64346;50.820;16.274;2023-04-24T08:46:40;9.88;;;5.68;;
36441;SDS011;64346;50.820;16.274;2023-04-24T08:49:09;9.10;;;5.47;;
36441;SDS011;64346;50.820;16.274;2023-04-24T08:51:36;10.00;;;5.57;;
36441;SDS011;64346;50.820;16.274;2023-04-24T08:54:04;10.02;;;6.10;;
36441;SDS011;64346;50.820;16.274;2023-04-24T08:56:34;12.23;;;5.78;;
36441;SDS011;64346;50.820;16.274;2023-04-24T08:59:03;9.57;;;5.82;;
36441;SDS011;64346;50.820;16.274;2023-04-24T09:01:32;12.70;;;6.72;;
36441;SDS011;64346;50.820;16.274;2023-04-24T09:04:03;14.40;;;8.40;;
36441;SDS011;64346;50.820;16.274;2023-04-24T09:06:31;9.85;;;5.20;;
36441;SDS011;64346;50.820;16.274;2023-04-24T09:09:01;8.30;;;4.97;;
36441;SDS011;64346;50.820;16.274;2023-04-24T09:11:30;11.02;;;6.25;;
36441;SDS011;64346;50.820;16.274;2023-04-24T09:13:58;11.13;;;6.63;;
36441;SDS011;64346;50.820;16.274;2023-04-24T09:16:26;11.38;;;6.88;;
36441;SDS011;64346;50.820;16.274;2023-04-24T09:18:56;10.68;;;6.53;;
36441;SDS011;64346;50.820;16.274;2023-04-24T09:21:23;10.60;;;7.03;;
36441;SDS011;64346;50.820;16.274;2023-04-24T09:24:07;11.32;;;7.68;;
36441;SDS011;64346;50.820;16.274;2023-04-24T09:26:40;11.63;;;6.57;;
36441;SDS011;64346;50.820;16.274;2023-04-24T09:29:14;11.98;;;7.40;;
36441;SDS011;64346;50.820;16.274;2023-04-24T09:31:43;10.65;;;6.75;;
36441;SDS011;64346;50.820;16.274;2023-04-24T09:34:13;12.32;;;7.60;;
36441;SDS011;64346;50.820;16.274;2023-04-24T09:36:43;12.38;;;7.93;;
36441;SDS011;64346;50.820;16.274;2023-04-24T09:39:14;11.73;;;7.60;;
36441;SDS011;64346;50.820;16.274;2023-04-24T09:41:46;12.43;;;7.10;;
36441;SDS011;64346;50.820;16.274;2023-04-24T09:44:18;13.00;;;8.07;;
36441;SDS011;64346;50.820;16.274;2023-04-24T09:46:51;15.63;;;9.82;;
36441;SDS011;64346;50.820;16.274;2023-04-24T09:49:22;14.35;;;8.02;;
36441;SDS011;64346;50.820;16.274;2023-04-24T09:52:03;12.02;;;7.60;;
36441;SDS011;64346;50.820;16.274;2023-04-24T09:54:35;12.30;;;6.82;;
36441;SDS011;64346;50.820;16.274;2023-04-24T09:57:03;9.50;;;6.38;;
36441;SDS011;64346;50.820;16.274;2023-04-24T09:59:33;11.60;;;6.88;;
36441;SDS011;64346;50.820;16.274;2023-04-24T10:02:03;10.30;;;6.35;;
36441;SDS011;64346;50.820;16.274;2023-04-24T10:04:53;13.02;;;6.70;;
36441;SDS011;64346;50.820;16.274;2023-04-24T10:07:27;11.80;;;7.10;;
36441;SDS011;64346;50.820;16.274;2023-04-24T10:09:54;11.00;;;6.97;;
36441;SDS011;64346;50.820;16.274;2023-04-24T10:12:21;11.18;;;7.13;;
36441;SDS011;64346;50.820;16.274;2023-04-24T10:14:50;12.15;;;8.15;;
36441;SDS011;64346;50.820;16.274;2023-04-24T10:17:18;11.38;;;7.25;;
36441;SDS011;64346;50.820;16.274;2023-04-24T10:19:52;9.48;;;6.25;;
36441;SDS011;64346;50.820;16.274;2023-04-24T10:22:25;11.90;;;7.40;;
36441;SDS011;64346;50.820;16.274;2023-04-24T10:24:53;10.25;;;6.75;;
36441;SDS011;64346;50.820;16.274;2023-04-24T10:27:23;10.32;;;6.22;;
36441;SDS011;64346;50.820;16.274;2023-04-24T10:29:52;11.73;;;7.50;;
36441;SDS011;64346;50.820;16.274;2023-04-24T10:32:20;12.77;;;8.18;;
36441;SDS011;64346;50.820;16.274;2023-04-24T10:34:47;14.68;;;10.27;;
36441;SDS011;64346;50.820;16.274;2023-04-24T10:37:15;14.40;;;10.23;;
36441;SDS011;64346;50.820;16.274;2023-04-24T10:39:47;14.93;;;9.73;;
36441;SDS011;64346;50.820;16.274;2023-04-24T10:42:17;18.65;;;12.25;;
36441;SDS011;64346;50.820;16.274;2023-04-24T10:44:44;16.88;;;10.82;;
36441;SDS011;64346;50.820;16.274;2023-04-24T10:47:17;20.73;;;13.82;;
36441;SDS011;64346;50.820;16.274;2023-04-24T10:49:44;22.60;;;14.05;;
36441;SDS011;64346;50.820;16.274;2023-04-24T10:52:17;22.25;;;14.65;;
36441;SDS011;64346;50.820;16.274;2023-04-24T10:54:44;23.67;;;15.43;;
36441;SDS011;64346;50.820;16.274;2023-04-24T10:59:44;18.48;;;12.15;;
36441;SDS011;64346;50.820;16.274;2023-04-24T11:02:19;17.52;;;11.75;;
36441;SDS011;64346;50.820;16.274;2023-04-24T11:05:03;17.30;;;11.90;;
36441;SDS011;64346;50.820;16.274;2023-04-24T11:10:40;18.60;;;12.20;;
36441;SDS011;64346;50.820;16.274;2023-04-24T11:13:13;17.45;;;11.85;;
36441;SDS011;64346;50.820;16.274;2023-04-24T11:15:41;18.02;;;12.45;;
36441;SDS011;64346;50.820;16.274;2023-04-24T11:18:14;20.80;;;12.90;;
36441;SDS011;64346;50.820;16.274;2023-04-24T11:20:42;17.45;;;11.52;;
36441;SDS011;64346;50.820;16.274;2023-04-24T11:23:11;17.75;;;11.68;;
36441;SDS011;64346;50.820;16.274;2023-04-24T11:25:39;18.00;;;10.60;;
36441;SDS011;64346;50.820;16.274;2023-04-24T11:28:14;15.65;;;10.65;;
36441;SDS011;64346;50.820;16.274;2023-04-24T11:30:41;14.30;;;10.10;;
36441;SDS011;64346;50.820;16.274;2023-04-24T11:33:08;13.02;;;8.80;;
36441;SDS011;64346;50.820;16.274;2023-04-24T11:35:39;11.48;;;6.78;;
36441;SDS011;64346;50.820;16.274;2023-04-24T11:38:09;10.27;;;5.65;;
36441;SDS011;64346;50.820;16.274;2023-04-24T11:40:50;8.47;;;4.60;;
36441;SDS011;64346;50.820;16.274;2023-04-24T11:43:18;7.10;;;3.95;;
36441;SDS011;64346;50.820;16.274;2023-04-24T11:45:49;4.78;;;2.80;;
36441;SDS011;64346;50.820;16.274;2023-04-24T11:48:20;4.95;;;2.30;;
36441;SDS011;64346;50.820;16.274;2023-04-24T11:50:49;3.45;;;2.03;;
36441;SDS011;64346;50.820;16.274;2023-04-24T11:53:20;6.13;;;2.67;;
36441;SDS011;64346;50.820;16.274;2023-04-24T11:55:47;4.32;;;2.22;;
36441;SDS011;64346;50.820;16.274;2023-04-24T11:58:14;4.65;;;2.40;;
36441;SDS011;64346;50.820;16.274;2023-04-24T12:00:54;5.43;;;2.90;;
36441;SDS011;64346;50.820;16.274;2023-04-24T12:03:26;4.75;;;2.63;;
36441;SDS011;64346;50.820;16.274;2023-04-24T12:06:04;5.65;;;2.95;;
36441;SDS011;64346;50.820;16.274;2023-04-24T12:08:38;10.20;;;3.70;;
36441;SDS011;64346;50.820;16.274;2023-04-24T12:11:10;10.13;;;3.03;;
36441;SDS011;64346;50.820;16.274;2023-04-24T12:13:40;6.93;;;3.05;;
36441;SDS011;64346;50.820;16.274;2023-04-24T12:16:09;6.68;;;3.30;;
36441;SDS011;64346;50.820;16.274;2023-04-24T12:18:43;5.47;;;2.63;;
36441;SDS011;64346;50.820;16.274;2023-04-24T12:23:48;6.10;;;3.33;;
36441;SDS011;64346;50.820;16.274;2023-04-24T12:26:19;13.73;;;7.40;;
36441;SDS011;64346;50.820;16.274;2023-04-24T12:28:47;11.93;;;6.53;;
36441;SDS011;64346;50.820;16.274;2023-04-24T12:31:16;9.35;;;4.43;;
36441;SDS011;64346;50.820;16.274;2023-04-24T12:33:43;5.65;;;2.92;;
36441;SDS011;64346;50.820;16.274;2023-04-24T12:36:13;5.50;;;2.70;;
36441;SDS011;64346;50.820;16.274;2023-04-24T12:38:43;6.53;;;3.05;;
36441;SDS011;64346;50.820;16.274;2023-04-24T12:41:13;4.45;;;2.40;;
36441;SDS011;64346;50.820;16.274;2023-04-24T12:43:53;10.40;;;4.90;;
36441;SDS011;64346;50.820;16.274;2023-04-24T12:46:21;8.60;;;3.28;;
36441;SDS011;64346;50.820;16.274;2023-04-24T12:48:54;4.97;;;2.55;;
36441;SDS011;64346;50.820;16.274;2023-04-24T12:51:24;7.45;;;2.92;;
36441;SDS011;64346;50.820;16.274;2023-04-24T12:53:54;7.85;;;2.92;;
36441;SDS011;64346;50.820;16.274;2023-04-24T12:56:22;6.47;;;3.42;;
36441;SDS011;64346;50.820;16.274;2023-04-24T12:58:57;5.17;;;2.67;;
36441;SDS011;64346;50.820;16.274;2023-04-24T13:01:24;6.18;;;3.13;;
36441;SDS011;64346;50.820;16.274;2023-04-24T13:03:51;5.97;;;2.80;;
36441;SDS011;64346;50.820;16.274;2023-04-24T13:06:25;4.85;;;2.63;;
36441;SDS011;64346;50.820;16.274;2023-04-24T13:09:01;7.25;;;3.25;;
36441;SDS011;64346;50.820;16.274;2023-04-24T13:11:30;8.48;;;3.63;;
36441;SDS011;64346;50.820;16.274;2023-04-24T13:14:04;8.95;;;3.45;;
36441;SDS011;64346;50.820;16.274;2023-04-24T13:16:38;6.10;;;2.92;;
36441;SDS011;64346;50.820;16.274;2023-04-24T13:19:08;5.85;;;2.97;;
36441;SDS011;64346;50.820;16.274;2023-04-24T13:21:43;7.13;;;2.92;;
36441;SDS011;64346;50.820;16.274;2023-04-24T13:24:11;5.53;;;2.40;;
36441;SDS011;64346;50.820;16.274;2023-04-24T13:26:38;8.13;;;3.75;;
36441;SDS011;64346;50.820;16.274;2023-04-24T13:29:06;10.88;;;4.65;;
36441;SDS011;64346;50.820;16.274;2023-04-24T13:31:36;6.20;;;2.97;;
36441;SDS011;64346;50.820;16.274;2023-04-24T13:34:03;6.10;;;2.88;;
36441;SDS011;64346;50.820;16.274;2023-04-24T13:36:30;6.38;;;2.72;;
36441;SDS011;64346;50.820;16.274;2023-04-24T13:39:00;6.50;;;3.10;;
36441;SDS011;64346;50.820;16.274;2023-04-24T13:41:34;14.88;;;7.30;;
36441;SDS011;64346;50.820;16.274;2023-04-24T13:44:02;16.52;;;7.72;;
36441;SDS011;64346;50.820;16.274;2023-04-24T13:46:30;16.25;;;8.55;;
36441;SDS011;64346;50.820;16.274;2023-04-24T13:48:58;15.20;;;8.15;;
36441;SDS011;64346;50.820;16.274;2023-04-24T13:51:25;14.73;;;7.47;;
36441;SDS011;64346;50.820;16.274;2023-04-24T13:53:53;15.27;;;6.97;;
36441;SDS011;64346;50.820;16.274;2023-04-24T13:56:23;12.70;;;6.63;;
36441;SDS011;64346;50.820;16.274;2023-04-24T13:58:52;16.55;;;8.20;;
36441;SDS011;64346;50.820;16.274;2023-04-24T14:01:22;13.95;;;7.15;;
36441;SDS011;64346;50.820;16.274;2023-04-24T14:03:53;13.60;;;7.30;;
36441;SDS011;64346;50.820;16.274;2023-04-24T14:06:22;15.20;;;8.30;;
36441;SDS011;64346;50.820;16.274;2023-04-24T14:08:50;18.15;;;9.98;;
36441;SDS011;64346;50.820;16.274;2023-04-24T14:11:20;17.17;;;10.65;;
36441;SDS011;64346;50.820;16.274;2023-04-24T14:13:52;18.45;;;9.70;;
36441;SDS011;64346;50.820;16.274;2023-04-24T14:16:21;17.77;;;9.73;;
36441;SDS011;64346;50.820;16.274;2023-04-24T14:18:48;13.65;;;6.70;;
36441;SDS011;64346;50.820;16.274;2023-04-24T14:21:18;13.50;;;6.72;;
36441;SDS011;64346;50.820;16.274;2023-04-24T14:23:47;14.43;;;8.02;;
36441;SDS011;64346;50.820;16.274;2023-04-24T14:26:14;16.38;;;8.73;;
36441;SDS011;64346;50.820;16.274;2023-04-24T14:28:42;18.67;;;9.82;;
36441;SDS011;64346;50.820;16.274;2023-04-24T14:31:09;16.08;;;8.82;;
36441;SDS011;64346;50.820;16.274;2023-04-24T14:33:36;14.45;;;7.70;;
36441;SDS011;64346;50.820;16.274;2023-04-24T14:36:07;16.20;;;8.27;;
36441;SDS011;64346;50.820;16.274;2023-04-24T14:38:37;13.68;;;7.13;;
36441;SDS011;64346;50.820;16.274;2023-04-24T14:41:04;12.55;;;6.53;;
36441;SDS011;64346;50.820;16.274;2023-04-24T14:43:35;12.82;;;5.53;;